Aeroporto :
LOGIN :

Iscrizione | Disclaimer

   EN    FR    IT 

 










Sommario :    VFR   VFR Marginale   IFR   IFR Intensivo   IFR Molto Intensivo
Visibilità : 
Base nubi : 
>= 8 km
>= 3000ft
5 / 8 km
1000 / 3000 ft
1500m / 5 km
500 / 1000 ft
800 / 1500m
200 / 500 ft
< 800m
< 200 ft
Simboli :   Temporali  Nebbia  Neve Forte  Precipitazioni Forti  Vento > 20 kt
SIGMETs :   Varie  Temporali  Ghiacco  Turbolenza  Onda orograficha  Ceneri Vulcaniche






- Altitudine del aeroporto : 100 ft


EBDT - Schaffen

ULTIMO METAR :
  • 260525Z AUTO 16004KT 9999 BKN170/// 14/12 Q1015 BLU

METARs OBSOLETI :
  • 260455Z AUTO 15005KT 9999 FEW100/// BKN180/// 13/12 Q1015 BLU
  • 260425Z AUTO 15003KT 9999 BKN099/// BKN200/// 12/11 Q1015 BLU
  • 260355Z AUTO 15004KT 9999 BKN200/// 12/11 Q1015 BLU
  • 260347Z AUTO 15004KT 9999 BKN210/// 12/11 Q1015 BLU
  • 260255Z AUTO 14005KT 9999 BKN220/// 12/11 Q1015 BLU
  • 260225Z AUTO 13004KT 9999 BKN220/// 12/11 Q1015 BLU
  • 260155Z AUTO 13004KT 9999 BKN230/// 12/11 Q1016 BLU

Previsioni scadute.



MetMap, La meteo Aeronautica in un colpo d'occhio ! - Copyright ORBIFLY Dicembre 2007 - Disclaimer

ORBIFLY MET'MAP TEAM :

Programmazione e sviluppo : Alexandra Zaïnal
Concezione : Baudouin d'Aumeries
Supporto tecnico e logistico : Manuel Goepfert
Aiuto : Marc-Olivier Méhu
Aiuto per la traduzione : Arnaldo La Scala




FONTI E CREDITI :

   NOAA